Time;durP1;ratioP1;P1;durP2;ratioP2;P2;SDS_P1;SDS_P2;PMS_P1;PMS_P2;Temp;Humidity;BMP_temperature;BMP_pressure;BME280_temperature;BME280_humidity;BME280_pressure;Samples;Min_cycle;Max_cycle;Signal;HPM_P1;HPM_P2
2022/01/02 00:01:57;;;;;;;3.35;1.00;;;;;;;;;;5101013;28;20036;-72
2022/01/02 00:04:22;;;;;;;2.15;0.75;;;;;;;;;;5100902;28;20071;-72
2022/01/02 00:06:52;;;;;;;1.08;0.52;;;;;;;;;;5101118;28;20027;-72
2022/01/02 00:09:28;;;;;;;1.73;0.60;;;;;;;;;;5100909;28;20081;-72
2022/01/02 00:12:20;;;;;;;3.63;0.63;;;;;;;;;;5100674;28;20017;-72
2022/01/02 00:14:47;;;;;;;1.40;0.68;;;;;;;;;;5100833;28;20035;-72
2022/01/02 00:17:16;;;;;;;1.45;0.60;;;;;;;;;;5100006;28;20081;-73
2022/01/02 00:19:46;;;;;;;2.30;0.70;;;;;;;;;;5100471;28;20042;-72
2022/01/02 00:22:16;;;;;;;1.55;0.70;;;;;;;;;;5100873;28;20015;-72
2022/01/02 00:24:43;;;;;;;1.55;0.70;;;;;;;;;;5100948;28;20012;-72
2022/01/02 00:27:10;;;;;;;0.65;0.52;;;;;;;;;;5100374;28;20020;-73
2022/01/02 00:29:41;;;;;;;1.23;0.85;;;;;;;;;;5100096;28;20021;-72
2022/01/02 00:32:09;;;;;;;3.55;0.90;;;;;;;;;;5100476;28;20031;-73
2022/01/02 00:34:35;;;;;;;1.20;0.68;;;;;;;;;;5100073;28;20031;-73
2022/01/02 00:37:02;;;;;;;2.47;0.80;;;;;;;;;;5100291;28;20037;-73
2022/01/02 00:39:27;;;;;;;3.58;0.63;;;;;;;;;;5100141;28;20024;-72
2022/01/02 00:42:07;;;;;;;3.63;0.98;;;;;;;;;;5100388;28;20032;-74
2022/01/02 00:45:06;;;;;;;0.60;0.60;;;;;;;;;;5100090;28;20064;-73
2022/01/02 00:47:42;;;;;;;2.65;1.00;;;;;;;;;;5088482;28;20020;-73
2022/01/02 00:50:13;;;;;;;1.88;0.70;;;;;;;;;;5099926;28;20072;-73
2022/01/02 00:52:44;;;;;;;2.25;0.93;;;;;;;;;;5099708;28;20020;-73
2022/01/02 00:55:20;;;;;;;2.95;0.80;;;;;;;;;;5099164;28;20062;-73
2022/01/02 00:57:56;;;;;;;2.17;0.95;;;;;;;;;;5099455;28;20020;-73
2022/01/02 01:00:23;;;;;;;3.50;0.93;;;;;;;;;;5099244;28;20011;-73
2022/01/02 01:02:52;;;;;;;2.15;0.70;;;;;;;;;;5100055;28;20021;-73
2022/01/02 01:05:21;;;;;;;1.83;0.70;;;;;;;;;;5099380;28;20008;-73
2022/01/02 01:07:49;;;;;;;1.58;0.70;;;;;;;;;;5100031;28;20017;-73
2022/01/02 01:10:15;;;;;;;2.00;1.05;;;;;;;;;;5098947;28;20054;-73
2022/01/02 01:12:40;;;;;;;4.45;1.17;;;;;;;;;;5099732;28;20022;-73
2022/01/02 01:15:08;;;;;;;3.30;1.20;;;;;;;;;;5099963;28;20012;-73
2022/01/02 01:17:36;;;;;;;3.53;1.00;;;;;;;;;;5098677;28;20034;-73
2022/01/02 01:20:01;;;;;;;3.55;0.93;;;;;;;;;;5099164;28;20021;-73
2022/01/02 01:22:27;;;;;;;6.13;1.45;;;;;;;;;;5099823;28;20040;-73
2022/01/02 01:24:52;;;;;;;5.10;0.80;;;;;;;;;;5099255;28;20013;-73
2022/01/02 01:27:17;;;;;;;1.80;0.93;;;;;;;;;;5099450;28;20084;-73
2022/01/02 01:29:43;;;;;;;2.10;0.90;;;;;;;;;;5098691;28;20020;-72
2022/01/02 01:32:09;;;;;;;8.63;1.00;;;;;;;;;;5099381;28;20042;-72
2022/01/02 01:34:35;;;;;;;2.42;0.88;;;;;;;;;;5099174;28;20019;-72
2022/01/02 01:37:01;;;;;;;2.65;0.90;;;;;;;;;;5099280;28;20044;-72
2022/01/02 01:39:26;;;;;;;3.35;1.10;;;;;;;;;;5099197;28;20148;-72
2022/01/02 01:41:54;;;;;;;3.70;0.90;;;;;;;;;;5099190;28;20027;-73
2022/01/02 01:44:38;;;;;;;2.78;1.20;;;;;;;;;;5099320;28;20016;-72
2022/01/02 01:47:03;;;;;;;;;;;;;;;;;;5099056;28;20029;-73
2022/01/02 01:49:30;;;;;;;1.67;0.90;;;;;;;;;;5098840;28;19911;-72
2022/01/02 01:51:56;;;;;;;2.30;0.95;;;;;;;;;;5098656;28;20017;-72
2022/01/02 01:54:22;;;;;;;6.80;1.05;;;;;;;;;;5098960;28;20005;-73
2022/01/02 01:56:51;;;;;;;6.82;1.20;;;;;;;;;;5099118;28;20021;-72
2022/01/02 01:59:18;;;;;;;1.98;0.68;;;;;;;;;;5098823;28;20075;-72
2022/01/02 02:01:44;;;;;;;3.55;1.08;;;;;;;;;;5098923;28;20036;-72
2022/01/02 02:04:09;;;;;;;3.05;1.08;;;;;;;;;;5098265;28;20009;-72
2022/01/02 02:06:36;;;;;;;1.45;0.70;;;;;;;;;;5098734;28;20016;-72
2022/01/02 02:09:06;;;;;;;4.45;0.80;;;;;;;;;;5098803;28;20083;-73
2022/01/02 02:11:32;;;;;;;7.20;0.77;;;;;;;;;;5098576;28;20021;-72
2022/01/02 02:13:58;;;;;;;4.00;1.00;;;;;;;;;;5098797;28;20036;-72
2022/01/02 02:16:26;;;;;;;4.25;1.17;;;;;;;;;;5098471;28;20023;-72
2022/01/02 02:18:51;;;;;;;3.08;0.90;;;;;;;;;;5098353;28;20016;-72
2022/01/02 02:21:27;;;;;;;2.03;0.73;;;;;;;;;;5098295;28;20036;-72
2022/01/02 02:23:52;;;;;;;1.48;0.70;;;;;;;;;;5098692;28;20062;-72
2022/01/02 02:26:17;;;;;;;4.80;0.90;;;;;;;;;;5098486;28;20012;-72
2022/01/02 02:28:43;;;;;;;1.67;0.75;;;;;;;;;;5098302;28;20038;-72
2022/01/02 02:31:08;;;;;;;2.47;0.85;;;;;;;;;;5098079;28;20024;-72
2022/01/02 02:33:33;;;;;;;5.70;1.15;;;;;;;;;;5098063;28;20076;-71
2022/01/02 02:35:59;;;;;;;3.33;0.70;;;;;;;;;;5098004;28;20012;-71
2022/01/02 02:38:24;;;;;;;4.15;0.82;;;;;;;;;;5097241;28;20083;-71
2022/01/02 02:40:51;;;;;;;3.65;1.10;;;;;;;;;;5098113;28;20047;-72
2022/01/02 02:43:32;;;;;;;2.65;0.80;;;;;;;;;;5098011;28;20008;-72
2022/01/02 02:51:39;;;;;;;2.33;0.82;;;;;;;;;;5097968;28;19907;-72
2022/01/02 02:54:06;;;;;;;4.03;1.23;;;;;;;;;;5097863;28;20038;-71
2022/01/02 02:56:54;;;;;;;1.88;0.85;;;;;;;;;;5097696;28;20074;-71
2022/01/02 02:59:20;;;;;;;2.85;0.88;;;;;;;;;;5097735;28;20012;-71
2022/01/02 03:01:46;;;;;;;1.40;0.88;;;;;;;;;;5096947;28;20122;-71
2022/01/02 03:04:12;;;;;;;3.60;0.65;;;;;;;;;;5096978;28;20020;-72
2022/01/02 03:06:37;;;;;;;4.72;0.60;;;;;;;;;;5097951;28;20019;-71
2022/01/02 03:09:10;;;;;;;1.48;0.60;;;;;;;;;;5097187;28;20016;-72
2022/01/02 03:11:39;;;;;;;2.35;0.70;;;;;;;;;;5097751;28;20023;-72
2022/01/02 03:14:06;;;;;;;3.83;1.00;;;;;;;;;;5097286;28;20040;-72
2022/01/02 03:16:32;;;;;;;5.05;0.93;;;;;;;;;;5097613;28;20040;-72
2022/01/02 03:18:58;;;;;;;2.92;0.82;;;;;;;;;;5097419;28;20017;-71
2022/01/02 03:21:23;;;;;;;1.25;0.60;;;;;;;;;;5097693;28;20012;-72
2022/01/02 03:23:49;;;;;;;2.58;0.60;;;;;;;;;;5100182;28;20039;-71
2022/01/02 03:26:15;;;;;;;2.03;0.68;;;;;;;;;;5101622;28;20034;-72
2022/01/02 03:28:40;;;;;;;1.23;0.57;;;;;;;;;;5101533;28;20012;-71
2022/01/02 03:31:06;;;;;;;3.60;0.80;;;;;;;;;;5100703;28;20012;-72
2022/01/02 03:33:32;;;;;;;2.65;0.98;;;;;;;;;;5101004;28;20016;-71
2022/01/02 03:35:58;;;;;;;3.28;0.68;;;;;;;;;;5100868;28;20020;-72
2022/01/02 03:38:23;;;;;;;2.28;0.90;;;;;;;;;;5100921;28;20040;-71
2022/01/02 03:40:49;;;;;;;0.77;0.70;;;;;;;;;;5101275;28;20017;-72
2022/01/02 03:43:14;;;;;;;3.20;0.85;;;;;;;;;;5101321;28;20072;-72
2022/01/02 03:45:40;;;;;;;2.35;0.90;;;;;;;;;;5101137;28;20020;-71
2022/01/02 03:48:05;;;;;;;4.40;0.82;;;;;;;;;;5101396;28;20099;-72
2022/01/02 03:50:31;;;;;;;4.20;1.00;;;;;;;;;;5101619;28;20039;-72
2022/01/02 03:52:56;;;;;;;1.63;0.88;;;;;;;;;;5101318;28;20047;-72
2022/01/02 03:55:22;;;;;;;1.88;0.90;;;;;;;;;;5100878;28;20013;-72
2022/01/02 03:57:47;;;;;;;5.93;1.15;;;;;;;;;;5100840;28;20005;-72
2022/01/02 04:00:14;;;;;;;3.97;1.33;;;;;;;;;;5100954;28;20031;-72
2022/01/02 04:02:40;;;;;;;4.72;1.20;;;;;;;;;;5100848;28;20019;-72
2022/01/02 04:05:07;;;;;;;4.85;1.15;;;;;;;;;;5100773;28;20017;-72
2022/01/02 04:07:33;;;;;;;3.10;1.40;;;;;;;;;;5100765;28;20052;-72
2022/01/02 04:10:02;;;;;;;3.75;1.13;;;;;;;;;;5100609;28;20015;-72
2022/01/02 04:12:27;;;;;;;1.65;1.00;;;;;;;;;;5100794;28;20020;-73
2022/01/02 04:14:53;;;;;;;1.70;1.00;;;;;;;;;;5100663;28;20020;-73
2022/01/02 04:17:18;;;;;;;1.77;1.10;;;;;;;;;;5100767;28;20009;-73
2022/01/02 04:19:44;;;;;;;1.88;0.90;;;;;;;;;;5100022;28;20028;-73
2022/01/02 04:22:09;;;;;;;2.70;1.00;;;;;;;;;;5100021;28;20025;-73
2022/01/02 04:24:34;;;;;;;3.20;1.00;;;;;;;;;;5100905;28;20024;-71
2022/01/02 04:27:00;;;;;;;1.65;0.70;;;;;;;;;;5099916;28;20031;-72
2022/01/02 04:29:25;;;;;;;2.92;1.10;;;;;;;;;;5100572;28;20017;-72
2022/01/02 04:31:51;;;;;;;2.80;1.45;;;;;;;;;;5099653;28;20080;-71
2022/01/02 04:34:16;;;;;;;2.03;1.10;;;;;;;;;;5099120;28;20019;-72
2022/01/02 04:36:41;;;;;;;3.75;1.40;;;;;;;;;;5100142;28;20084;-72
2022/01/02 04:39:07;;;;;;;2.33;1.25;;;;;;;;;;5099446;28;20021;-72
2022/01/02 04:41:32;;;;;;;5.00;1.50;;;;;;;;;;5100813;28;20020;-73
2022/01/02 04:43:57;;;;;;;3.60;1.58;;;;;;;;;;5100324;28;20008;-72
2022/01/02 04:46:23;;;;;;;3.53;1.58;;;;;;;;;;5100188;28;20086;-72
2022/01/02 04:48:48;;;;;;;3.78;1.48;;;;;;;;;;5099463;28;20028;-72
2022/01/02 04:51:13;;;;;;;4.45;1.52;;;;;;;;;;5100052;28;20020;-71
2022/01/02 04:53:46;;;;;;;2.97;1.42;;;;;;;;;;5098957;28;20038;-72
2022/01/02 04:56:16;;;;;;;3.95;2.00;;;;;;;;;;5099925;28;20012;-71
2022/01/02 04:58:42;;;;;;;4.35;1.92;;;;;;;;;;5099979;28;20086;-72
2022/01/02 05:01:11;;;;;;;6.20;2.78;;;;;;;;;;5099115;28;20020;-72
2022/01/02 05:03:46;;;;;;;4.85;2.35;;;;;;;;;;5099692;28;20076;-72
2022/01/02 05:06:14;;;;;;;4.30;2.20;;;;;;;;;;5099809;28;20019;-72
2022/01/02 05:08:44;;;;;;;5.55;2.67;;;;;;;;;;5100195;28;20024;-72
2022/01/02 05:11:09;;;;;;;5.05;2.33;;;;;;;;;;5099596;28;20035;-72
2022/01/02 05:13:35;;;;;;;8.25;2.95;;;;;;;;;;5099886;28;20016;-72
2022/01/02 05:16:00;;;;;;;6.30;2.85;;;;;;;;;;5099807;28;20028;-72
2022/01/02 05:18:26;;;;;;;7.53;3.58;;;;;;;;;;5099385;28;20008;-73
2022/01/02 05:20:51;;;;;;;8.18;4.10;;;;;;;;;;5099427;28;20019;-72
2022/01/02 05:23:17;;;;;;;8.30;4.10;;;;;;;;;;5099592;28;20020;-72
2022/01/02 05:25:43;;;;;;;11.95;4.88;;;;;;;;;;5099063;28;20012;-71
2022/01/02 05:28:11;;;;;;;10.00;4.38;;;;;;;;;;5099237;28;20016;-71
2022/01/02 05:30:38;;;;;;;16.20;5.13;;;;;;;;;;5099290;28;20021;-72
2022/01/02 05:33:03;;;;;;;13.10;4.55;;;;;;;;;;5099341;28;20034;-72
2022/01/02 05:35:30;;;;;;;11.52;5.75;;;;;;;;;;5099007;28;20005;-72
2022/01/02 05:37:55;;;;;;;17.80;6.47;;;;;;;;;;5098177;28;20048;-72
2022/01/02 05:40:21;;;;;;;12.73;4.95;;;;;;;;;;5099240;28;20017;-72
2022/01/02 05:42:46;;;;;;;11.65;5.43;;;;;;;;;;5099073;28;20008;-73
2022/01/02 05:45:12;;;;;;;10.85;4.72;;;;;;;;;;5099079;28;20005;-72
2022/01/02 05:47:38;;;;;;;12.55;5.75;;;;;;;;;;5098940;28;20072;-73
2022/01/02 05:50:07;;;;;;;10.15;5.30;;;;;;;;;;5098797;28;20013;-72
2022/01/02 05:52:33;;;;;;;8.95;4.32;;;;;;;;;;5098267;28;20017;-73
2022/01/02 05:54:58;;;;;;;10.15;5.15;;;;;;;;;;5098525;28;20037;-72
2022/01/02 05:57:24;;;;;;;11.40;4.20;;;;;;;;;;5098846;28;20040;-73
2022/01/02 05:59:49;;;;;;;15.23;4.72;;;;;;;;;;5098277;28;20145;-73
2022/01/02 06:02:14;;;;;;;11.73;5.60;;;;;;;;;;5098646;28;20009;-73
2022/01/02 06:04:40;;;;;;;13.23;5.13;;;;;;;;;;5099063;28;20009;-73
2022/01/02 06:07:05;;;;;;;14.70;3.90;;;;;;;;;;5098822;28;20024;-73
2022/01/02 06:09:31;;;;;;;18.20;5.57;;;;;;;;;;5098487;28;20024;-73
2022/01/02 06:11:56;;;;;;;23.30;6.15;;;;;;;;;;5098518;28;20017;-72
2022/01/02 06:14:22;;;;;;;13.35;5.10;;;;;;;;;;5098964;28;20016;-73
2022/01/02 06:16:47;;;;;;;9.65;4.47;;;;;;;;;;5098820;28;20024;-73
2022/01/02 06:19:13;;;;;;;13.40;5.57;;;;;;;;;;5098517;28;20019;-72
2022/01/02 06:21:38;;;;;;;16.17;5.78;;;;;;;;;;5097783;28;20066;-73
2022/01/02 06:24:03;;;;;;;21.55;6.28;;;;;;;;;;5098919;28;20017;-73
2022/01/02 06:26:29;;;;;;;32.50;6.30;;;;;;;;;;5098233;28;20008;-73
2022/01/02 06:28:54;;;;;;;21.50;6.43;;;;;;;;;;5098197;28;20008;-73
2022/01/02 06:31:20;;;;;;;32.75;9.55;;;;;;;;;;5098255;28;20024;-72
2022/01/02 06:33:45;;;;;;;34.13;9.85;;;;;;;;;;5098413;28;20019;-73
2022/01/02 06:36:13;;;;;;;28.15;6.78;;;;;;;;;;5098475;28;20013;-73
2022/01/02 06:38:39;;;;;;;18.15;5.78;;;;;;;;;;5097940;28;20088;-73
2022/01/02 06:41:04;;;;;;;21.30;6.88;;;;;;;;;;5114402;28;20016;-73
2022/01/02 06:43:32;;;;;;;19.85;6.47;;;;;;;;;;5097466;28;20013;-73
2022/01/02 06:45:57;;;;;;;16.83;6.55;;;;;;;;;;5097826;28;20013;-73
2022/01/02 06:48:23;;;;;;;19.80;6.47;;;;;;;;;;5098079;28;20035;-73
2022/01/02 06:50:48;;;;;;;24.70;7.90;;;;;;;;;;5097963;28;20080;-73
2022/01/02 06:53:14;;;;;;;21.27;8.35;;;;;;;;;;5098387;28;20036;-73
2022/01/02 06:55:39;;;;;;;24.00;8.43;;;;;;;;;;5097681;28;20009;-73
2022/01/02 06:58:06;;;;;;;22.17;6.90;;;;;;;;;;5097094;28;20012;-73
2022/01/02 07:00:31;;;;;;;25.10;6.85;;;;;;;;;;5097747;28;20009;-73
2022/01/02 07:02:56;;;;;;;25.35;7.88;;;;;;;;;;5097831;28;20016;-73
2022/01/02 07:05:22;;;;;;;21.48;6.90;;;;;;;;;;5097482;28;20036;-72
2022/01/02 07:07:47;;;;;;;15.15;6.13;;;;;;;;;;5097279;28;20025;-73
2022/01/02 07:10:16;;;;;;;31.02;6.53;;;;;;;;;;5097300;28;20012;-73
2022/01/02 07:12:41;;;;;;;21.45;7.10;;;;;;;;;;5097841;28;20016;-73
2022/01/02 07:15:08;;;;;;;28.02;6.80;;;;;;;;;;5097614;28;20038;-73
2022/01/02 07:17:35;;;;;;;20.35;6.85;;;;;;;;;;5097336;28;20020;-74
2022/01/02 07:20:01;;;;;;;21.80;6.63;;;;;;;;;;5097649;28;20016;-73
2022/01/02 07:22:27;;;;;;;28.83;7.43;;;;;;;;;;5097772;28;20039;-73
2022/01/02 07:24:52;;;;;;;19.73;6.65;;;;;;;;;;5097661;28;20005;-73
2022/01/02 07:27:19;;;;;;;35.63;7.50;;;;;;;;;;5097222;28;20008;-73
2022/01/02 07:29:46;;;;;;;34.25;7.75;;;;;;;;;;5113551;28;20087;-73
2022/01/02 07:32:12;;;;;;;31.10;7.20;;;;;;;;;;5096628;28;20039;-73
2022/01/02 07:34:37;;;;;;;22.20;5.93;;;;;;;;;;5097365;28;20015;-73
2022/01/02 07:37:03;;;;;;;28.98;6.75;;;;;;;;;;5097388;28;20021;-72
2022/01/02 07:39:28;;;;;;;24.42;7.45;;;;;;;;;;5097626;28;20050;-73
2022/01/02 07:41:53;;;;;;;45.15;7.95;;;;;;;;;;5097425;28;20032;-73
2022/01/02 07:44:19;;;;;;;22.98;6.00;;;;;;;;;;5096687;28;20004;-73
2022/01/02 07:46:44;;;;;;;36.67;7.13;;;;;;;;;;5097212;28;20059;-73
2022/01/02 07:49:10;;;;;;;28.65;7.68;;;;;;;;;;5097018;28;20064;-73
2022/01/02 07:51:35;;;;;;;42.17;7.30;;;;;;;;;;5097313;28;20020;-74
2022/01/02 07:54:00;;;;;;;37.72;7.93;;;;;;;;;;5097338;28;20040;-73
2022/01/02 07:56:27;;;;;;;58.28;7.30;;;;;;;;;;5096900;28;20020;-73
2022/01/02 07:58:52;;;;;;;32.90;7.13;;;;;;;;;;5096778;28;20047;-73
2022/01/02 08:01:19;;;;;;;39.00;7.22;;;;;;;;;;5097068;28;20068;-73
2022/01/02 08:03:45;;;;;;;22.92;6.22;;;;;;;;;;5097052;28;20021;-72
2022/01/02 08:06:13;;;;;;;21.30;6.47;;;;;;;;;;5096365;28;20046;-72
2022/01/02 08:08:39;;;;;;;22.95;6.13;;;;;;;;;;5096780;28;20078;-73
2022/01/02 08:11:04;;;;;;;30.23;6.63;;;;;;;;;;5100633;28;20020;-73
2022/01/02 08:13:29;;;;;;;25.85;6.53;;;;;;;;;;5101062;28;20020;-73
2022/01/02 08:15:55;;;;;;;19.08;6.20;;;;;;;;;;5100724;28;20062;-73
2022/01/02 08:18:20;;;;;;;28.10;6.28;;;;;;;;;;5100133;28;20040;-73
2022/01/02 08:20:46;;;;;;;42.50;7.05;;;;;;;;;;5100612;28;20111;-74
2022/01/02 08:23:13;;;;;;;36.83;7.07;;;;;;;;;;5100921;28;20017;-74
2022/01/02 08:25:39;;;;;;;49.15;7.05;;;;;;;;;;5099847;28;20027;-73
2022/01/02 08:28:04;;;;;;;37.00;7.05;;;;;;;;;;5100542;28;20055;-74
2022/01/02 08:30:30;;;;;;;65.82;6.72;;;;;;;;;;5100346;28;20013;-73
2022/01/02 08:32:55;;;;;;;32.95;6.47;;;;;;;;;;5100215;28;20036;-74
2022/01/02 08:35:21;;;;;;;34.35;6.32;;;;;;;;;;5100533;28;20064;-74
2022/01/02 08:37:46;;;;;;;30.77;5.65;;;;;;;;;;5099748;28;20092;-73
2022/01/02 08:40:11;;;;;;;43.97;6.97;;;;;;;;;;5100793;28;20105;-74
2022/01/02 08:42:40;;;;;;;36.72;6.63;;;;;;;;;;5100213;28;20080;-73
2022/01/02 08:45:06;;;;;;;43.55;6.15;;;;;;;;;;5100515;28;20118;-74
2022/01/02 08:47:31;;;;;;;45.22;6.47;;;;;;;;;;5100621;28;20016;-74
2022/01/02 08:49:57;;;;;;;81.82;6.90;;;;;;;;;;5100439;28;20026;-74
2022/01/02 08:52:23;;;;;;;51.72;6.18;;;;;;;;;;5100523;28;20020;-73
2022/01/02 08:54:48;;;;;;;31.92;5.85;;;;;;;;;;5100378;28;20068;-74
2022/01/02 08:57:13;;;;;;;74.47;6.78;;;;;;;;;;5100350;28;20020;-74
2022/01/02 08:59:39;;;;;;;53.80;6.22;;;;;;;;;;5100456;28;20064;-73
2022/01/02 09:02:04;;;;;;;39.72;5.95;;;;;;;;;;5099626;28;20048;-74
2022/01/02 09:04:30;;;;;;;56.90;5.72;;;;;;;;;;5100279;28;20017;-74
2022/01/02 09:06:56;;;;;;;75.05;6.82;;;;;;;;;;5100459;28;20038;-74
2022/01/02 09:09:21;;;;;;;58.13;5.57;;;;;;;;;;5100232;28;20016;-74
2022/01/02 09:11:46;;;;;;;66.97;6.68;;;;;;;;;;5100231;28;20088;-74
2022/01/02 09:14:12;;;;;;;60.83;6.40;;;;;;;;;;5100092;28;20008;-73
2022/01/02 09:16:39;;;;;;;53.05;6.00;;;;;;;;;;5100036;28;20048;-74
2022/01/02 09:19:05;;;;;;;90.00;6.63;;;;;;;;;;5099668;28;20013;-73
2022/01/02 09:21:30;;;;;;;81.78;7.10;;;;;;;;;;5099543;28;20027;-73
2022/01/02 09:23:56;;;;;;;86.07;6.72;;;;;;;;;;5100068;28;20008;-74
2022/01/02 09:26:21;;;;;;;54.95;6.43;;;;;;;;;;5098334;28;20066;-74
2022/01/02 09:28:46;;;;;;;40.50;6.07;;;;;;;;;;5098847;28;20021;-74
2022/01/02 09:31:12;;;;;;;69.80;6.40;;;;;;;;;;5099574;28;20012;-74
2022/01/02 09:33:40;;;;;;;49.47;5.82;;;;;;;;;;5099555;28;20039;-74
2022/01/02 09:36:05;;;;;;;47.50;5.85;;;;;;;;;;5099263;28;20040;-74
2022/01/02 09:38:31;;;;;;;53.58;6.30;;;;;;;;;;5098369;28;20020;-74
2022/01/02 09:40:58;;;;;;;44.95;5.85;;;;;;;;;;5098505;28;20005;-74
2022/01/02 09:43:26;;;;;;;32.90;5.75;;;;;;;;;;5099100;28;20020;-74
2022/01/02 09:45:52;;;;;;;53.50;5.45;;;;;;;;;;5099169;28;20104;-73
2022/01/02 09:48:17;;;;;;;46.20;5.28;;;;;;;;;;5098848;28;20020;-73
2022/01/02 09:50:43;;;;;;;42.50;5.88;;;;;;;;;;5098979;28;20024;-74
2022/01/02 09:53:09;;;;;;;33.58;5.32;;;;;;;;;;5098769;28;20012;-73
2022/01/02 09:55:35;;;;;;;45.17;5.32;;;;;;;;;;5098731;28;20031;-74
2022/01/02 09:58:03;;;;;;;38.40;5.60;;;;;;;;;;5097818;28;20250;-74
2022/01/02 10:00:29;;;;;;;45.72;5.70;;;;;;;;;;5098005;28;20008;-73
2022/01/02 10:02:59;;;;;;;31.95;4.82;;;;;;;;;;5097989;28;20024;-73
2022/01/02 10:05:26;;;;;;;43.92;5.68;;;;;;;;;;5098464;28;20017;-73
2022/01/02 10:07:52;;;;;;;41.67;5.05;;;;;;;;;;5097799;28;20020;-73
2022/01/02 10:10:18;;;;;;;59.28;6.22;;;;;;;;;;5098361;28;20013;-73
2022/01/02 10:12:44;;;;;;;66.53;6.35;;;;;;;;;;5097705;28;20082;-73
2022/01/02 10:15:15;;;;;;;57.17;6.28;;;;;;;;;;5097702;28;20053;-74
2022/01/02 10:18:00;;;;;;;59.60;5.88;;;;;;;;;;5097667;28;20021;-74
2022/01/02 10:20:43;;;;;;;77.65;6.40;;;;;;;;;;5098549;28;20035;-73
2022/01/02 10:23:14;;;;;;;46.67;5.72;;;;;;;;;;5098456;28;20025;-73
2022/01/02 10:25:45;;;;;;;61.67;6.65;;;;;;;;;;5097655;28;20020;-73
2022/01/02 10:28:18;;;;;;;36.58;5.22;;;;;;;;;;5098384;28;20030;-73
2022/01/02 10:30:48;;;;;;;46.95;6.20;;;;;;;;;;5098184;28;20032;-74
2022/01/02 10:33:14;;;;;;;78.25;6.57;;;;;;;;;;5096499;28;20012;-74
2022/01/02 10:35:41;;;;;;;44.95;5.43;;;;;;;;;;5097508;28;20039;-74
2022/01/02 10:38:06;;;;;;;70.97;6.07;;;;;;;;;;5098015;28;20112;-73
2022/01/02 10:40:38;;;;;;;47.30;5.20;;;;;;;;;;5097861;28;20012;-73
2022/01/02 10:43:23;;;;;;;30.80;4.97;;;;;;;;;;5097231;28;20033;-73
2022/01/02 10:45:50;;;;;;;64.07;6.15;;;;;;;;;;5097691;28;20046;-73
2022/01/02 10:48:28;;;;;;;50.70;5.40;;;;;;;;;;5097022;28;20020;-73
2022/01/02 10:51:02;;;;;;;75.03;6.13;;;;;;;;;;5097399;28;20014;-73
2022/01/02 10:53:29;;;;;;;30.90;5.30;;;;;;;;;;5097530;28;20064;-72
2022/01/02 10:55:54;;;;;;;35.58;5.80;;;;;;;;;;5097719;28;20016;-73
2022/01/02 10:58:20;;;;;;;65.25;7.00;;;;;;;;;;5096824;28;20047;-73
2022/01/02 11:00:46;;;;;;;66.65;6.85;;;;;;;;;;5097861;28;20072;-74
2022/01/02 11:03:12;;;;;;;63.28;6.50;;;;;;;;;;5098050;28;20025;-73
2022/01/02 11:05:41;;;;;;;30.00;5.82;;;;;;;;;;5097011;28;20009;-73
2022/01/02 11:08:07;;;;;;;62.53;7.30;;;;;;;;;;5097326;28;20052;-73
2022/01/02 11:10:35;;;;;;;59.42;6.88;;;;;;;;;;5097716;28;20043;-73
2022/01/02 11:13:03;;;;;;;29.13;5.68;;;;;;;;;;5097794;28;20038;-74
2022/01/02 11:15:29;;;;;;;40.30;5.70;;;;;;;;;;5097362;28;20011;-74
2022/01/02 11:17:55;;;;;;;47.83;5.95;;;;;;;;;;5097495;28;20017;-74
2022/01/02 11:20:30;;;;;;;45.13;4.95;;;;;;;;;;5097417;28;20084;-73
2022/01/02 11:22:58;;;;;;;24.08;5.18;;;;;;;;;;5096835;28;20026;-73
2022/01/02 11:25:44;;;;;;;30.67;5.03;;;;;;;;;;5097021;28;20020;-73
2022/01/02 11:28:31;;;;;;;45.70;5.20;;;;;;;;;;5096765;28;20020;-74
2022/01/02 11:30:57;;;;;;;31.58;4.20;;;;;;;;;;5097584;28;20024;-73
2022/01/02 11:33:32;;;;;;;56.50;5.72;;;;;;;;;;5096394;28;20036;-73
2022/01/02 11:36:00;;;;;;;44.63;4.88;;;;;;;;;;5097211;28;20045;-74
2022/01/02 11:38:41;;;;;;;36.92;4.53;;;;;;;;;;5097290;28;20066;-74
2022/01/02 11:41:06;;;;;;;35.30;4.95;;;;;;;;;;5096775;28;20036;-73
2022/01/02 11:43:48;;;;;;;20.90;3.72;;;;;;;;;;5097044;28;20017;-73
2022/01/02 11:46:16;;;;;;;44.38;4.63;;;;;;;;;;5101464;28;20005;-74
2022/01/02 11:48:42;;;;;;;59.10;4.90;;;;;;;;;;5101376;28;20016;-74
2022/01/02 11:51:10;;;;;;;64.90;5.13;;;;;;;;;;5101300;28;20012;-74
2022/01/02 11:53:52;;;;;;;40.20;4.70;;;;;;;;;;5100665;28;20012;-73
2022/01/02 11:56:32;;;;;;;23.63;3.95;;;;;;;;;;5101478;28;20009;-73
2022/01/02 11:58:57;;;;;;;30.02;3.67;;;;;;;;;;5100720;28;20047;-73
2022/01/02 12:01:44;;;;;;;23.52;4.45;;;;;;;;;;5101269;28;20013;-72
2022/01/02 12:04:09;;;;;;;50.58;4.38;;;;;;;;;;5100948;28;20035;-73
2022/01/02 12:06:35;;;;;;;25.00;4.35;;;;;;;;;;5100994;28;20020;-73
2022/01/02 12:09:04;;;;;;;14.40;3.38;;;;;;;;;;5100140;28;20008;-73
2022/01/02 12:11:38;;;;;;;15.18;3.30;;;;;;;;;;5099608;28;20272;-73
2022/01/02 12:14:08;;;;;;;;;;;;;;;;;;5100138;28;20032;-73
2022/01/02 12:16:36;;;;;;;15.90;2.92;;;;;;;;;;5098763;28;19924;-73
2022/01/02 12:19:02;;;;;;;32.10;4.32;;;;;;;;;;5099391;28;20039;-73
2022/01/02 12:21:28;;;;;;;21.80;3.70;;;;;;;;;;5100049;28;20023;-73
2022/01/02 12:23:55;;;;;;;26.48;3.97;;;;;;;;;;5099395;28;20012;-72
2022/01/02 12:26:30;;;;;;;20.08;3.55;;;;;;;;;;5100435;28;20017;-72
2022/01/02 12:29:07;;;;;;;25.75;3.55;;;;;;;;;;5100483;28;20038;-73
2022/01/02 12:31:39;;;;;;;18.42;2.95;;;;;;;;;;5100445;28;20031;-73
2022/01/02 12:34:33;;;;;;;29.75;3.45;;;;;;;;;;5116852;28;20012;-73
2022/01/02 12:36:59;;;;;;;18.85;3.40;;;;;;;;;;5098558;28;20080;-73
2022/01/02 12:39:37;;;;;;;25.10;3.83;;;;;;;;;;5098643;28;20035;-73
2022/01/02 12:42:08;;;;;;;25.63;4.40;;;;;;;;;;5098958;28;20093;-73
2022/01/02 12:44:35;;;;;;;18.55;3.97;;;;;;;;;;5099986;28;20020;-73
2022/01/02 12:47:04;;;;;;;14.77;3.83;;;;;;;;;;5100089;28;20031;-73
2022/01/02 12:49:32;;;;;;;25.83;4.10;;;;;;;;;;5099558;28;20088;-73
2022/01/02 12:52:13;;;;;;;24.42;3.97;;;;;;;;;;5100347;28;20029;-73
2022/01/02 12:54:44;;;;;;;19.77;3.30;;;;;;;;;;5099934;28;20019;-73
2022/01/02 12:57:12;;;;;;;26.88;3.92;;;;;;;;;;5099537;28;20064;-73
2022/01/02 12:59:39;;;;;;;38.58;4.00;;;;;;;;;;5099902;28;20012;-73
2022/01/02 13:02:10;;;;;;;26.05;4.15;;;;;;;;;;5100119;28;20033;-73
2022/01/02 13:04:40;;;;;;;23.33;3.95;;;;;;;;;;5099821;28;20016;-73
2022/01/02 13:07:13;;;;;;;30.38;3.80;;;;;;;;;;5099846;28;20012;-73
2022/01/02 13:09:47;;;;;;;28.27;4.15;;;;;;;;;;5099197;28;20004;-73
2022/01/02 13:12:15;;;;;;;32.15;3.88;;;;;;;;;;5099960;28;20095;-73
2022/01/02 13:15:09;;;;;;;35.60;4.93;;;;;;;;;;5099763;28;20004;-73
2022/01/02 13:17:39;;;;;;;36.77;4.47;;;;;;;;;;5099590;28;20032;-73
2022/01/02 13:20:19;;;;;;;38.03;4.68;;;;;;;;;;5115924;28;20016;-73
2022/01/02 13:22:47;;;;;;;37.10;4.18;;;;;;;;;;5099491;28;20024;-73
2022/01/02 13:25:22;;;;;;;29.73;4.18;;;;;;;;;;5099548;28;20012;-73
2022/01/02 13:28:09;;;;;;;30.88;3.80;;;;;;;;;;5099755;28;20071;-74
2022/01/02 13:30:38;;;;;;;41.65;4.65;;;;;;;;;;5099268;28;20032;-73
2022/01/02 13:33:19;;;;;;;36.42;4.72;;;;;;;;;;5099462;28;20021;-74
2022/01/02 13:35:44;;;;;;;45.80;4.38;;;;;;;;;;5099220;28;20028;-73
2022/01/02 13:38:11;;;;;;;63.67;4.97;;;;;;;;;;5099084;28;20036;-73
2022/01/02 13:40:38;;;;;;;37.55;4.47;;;;;;;;;;5099251;28;20032;-73
2022/01/02 13:43:18;;;;;;;47.03;4.60;;;;;;;;;;5098504;28;20036;-73
2022/01/02 13:45:45;;;;;;;44.25;5.03;;;;;;;;;;5099437;28;20038;-73
2022/01/02 13:48:21;;;;;;;22.50;4.45;;;;;;;;;;5098433;28;20017;-73
2022/01/02 13:50:52;;;;;;;21.08;3.75;;;;;;;;;;5099018;28;20016;-74
2022/01/02 13:53:19;;;;;;;29.38;4.72;;;;;;;;;;5098256;28;20106;-74
2022/01/02 13:55:47;;;;;;;77.28;5.63;;;;;;;;;;5098902;28;20016;-74
2022/01/02 13:58:19;;;;;;;31.00;4.45;;;;;;;;;;5098815;28;20036;-73
2022/01/02 14:00:56;;;;;;;45.33;5.18;;;;;;;;;;5098783;28;20016;-74
2022/01/02 14:03:42;;;;;;;42.55;4.30;;;;;;;;;;5098813;28;20016;-74
2022/01/02 14:06:13;;;;;;;42.80;4.97;;;;;;;;;;5098095;28;20009;-73
2022/01/02 14:08:44;;;;;;;74.72;5.63;;;;;;;;;;5098611;28;20036;-74
2022/01/02 14:11:25;;;;;;;58.30;4.82;;;;;;;;;;5097561;28;20028;-72
2022/01/02 14:14:08;;;;;;;50.45;4.60;;;;;;;;;;5097584;28;20031;-73
2022/01/02 14:19:39;;;;;;;42.22;5.38;;;;;;;;;;5075856;28;20039;-74
2022/01/02 14:22:06;;;;;;;48.33;5.20;;;;;;;;;;5107179;28;20036;-73
2022/01/02 14:24:31;;;;;;;49.13;6.30;;;;;;;;;;5098197;28;20009;-74
2022/01/02 14:26:57;;;;;;;32.97;4.32;;;;;;;;;;5097766;28;20042;-74
2022/01/02 14:29:24;;;;;;;37.03;4.35;;;;;;;;;;5098283;28;20023;-74
2022/01/02 14:31:50;;;;;;;46.13;4.80;;;;;;;;;;5097398;28;20035;-74
2022/01/02 14:34:15;;;;;;;36.35;5.10;;;;;;;;;;5097520;28;20008;-74
2022/01/02 14:36:41;;;;;;;32.47;4.57;;;;;;;;;;5098079;28;20020;-73
2022/01/02 14:39:08;;;;;;;36.38;5.40;;;;;;;;;;5097316;28;20016;-74
2022/01/02 14:41:37;;;;;;;37.60;4.55;;;;;;;;;;5098130;28;20024;-74
2022/01/02 14:44:03;;;;;;;37.30;5.28;;;;;;;;;;5098348;28;20013;-73
2022/01/02 14:46:29;;;;;;;36.88;4.20;;;;;;;;;;5098187;28;20023;-73
2022/01/02 14:48:54;;;;;;;42.95;4.47;;;;;;;;;;5098179;28;20024;-73
2022/01/02 14:51:20;;;;;;;39.10;4.38;;;;;;;;;;5097919;28;20008;-73